createdAt,value
2017-06-20T00:08:24.555Z,0
2017-06-20T00:18:33.254Z,0
2017-06-20T00:28:41.989Z,0
2017-06-20T00:38:50.723Z,0
2017-06-20T00:48:59.379Z,0
2017-06-20T00:59:08.084Z,0
2017-06-20T01:09:16.848Z,0
2017-06-20T01:19:25.724Z,0
2017-06-20T01:29:34.661Z,0
2017-06-20T01:39:43.576Z,0
2017-06-20T01:49:52.546Z,0
2017-06-20T02:00:01.491Z,0
2017-06-20T02:10:10.472Z,0
2017-06-20T02:20:19.427Z,0
2017-06-20T02:30:28.440Z,8
2017-06-20T02:40:37.554Z,16
2017-06-20T02:50:46.680Z,60
2017-06-20T03:00:55.828Z,144
2017-06-20T03:11:05.027Z,304
2017-06-20T03:21:14.222Z,608
2017-06-20T03:31:23.438Z,1020
2017-06-20T03:41:32.662Z,1444
2017-06-20T03:51:41.870Z,2000
2017-06-20T04:01:51.073Z,2660
2017-06-20T04:12:00.266Z,3400
2017-06-20T04:22:09.403Z,4112
2017-06-20T04:32:18.517Z,4884
2017-06-20T04:42:27.535Z,5740
2017-06-20T04:52:36.513Z,7164
2017-06-20T05:02:45.331Z,8312
2017-06-20T05:12:54.046Z,8732
2017-06-20T05:23:02.688Z,9592
2017-06-20T05:33:11.217Z,11720
2017-06-20T05:43:19.587Z,14692
2017-06-20T05:53:27.982Z,18272
2017-06-20T06:03:36.009Z,22336
2017-06-20T06:13:44.029Z,25408
2017-06-20T06:23:52.000Z,24448
2017-06-20T06:33:59.991Z,33408
2017-06-20T06:44:07.805Z,32128
2017-06-20T06:54:15.471Z,42208
2017-06-20T07:04:23.057Z,44608
2017-06-20T07:14:30.563Z,46912
2017-06-20T07:24:38.023Z,56032
2017-06-20T07:34:45.448Z,62304
2017-06-20T07:44:52.690Z,68800
2017-06-20T07:54:59.896Z,75520
2017-06-20T08:05:06.969Z,70240
2017-06-20T08:15:14.002Z,81440
2017-06-20T08:25:21.013Z,77856
2017-06-20T08:35:28.013Z,81952
2017-06-20T08:45:34.981Z,93184
2017-06-20T08:55:41.879Z,95872
2017-06-20T09:05:48.737Z,94880
2017-06-20T09:15:55.450Z,96736
2017-06-20T09:26:02.164Z,98656
2017-06-20T09:36:08.838Z,96928
2017-06-20T09:46:15.539Z,98496
2017-06-20T09:56:22.218Z,101664
2017-06-20T10:06:28.900Z,96064
2017-06-20T10:16:35.446Z,115520
2017-06-20T10:26:41.932Z,103648
2017-06-20T10:36:48.472Z,107456
2017-06-20T10:46:54.994Z,115680
2017-06-20T10:57:01.444Z,128512
2017-06-20T11:07:07.883Z,121632
2017-06-20T11:17:14.219Z,102624
2017-06-20T11:27:20.560Z,43648
2017-06-20T11:37:27.086Z,102144
2017-06-20T11:47:33.731Z,124480
2017-06-20T11:57:40.346Z,70400
2017-06-20T12:07:46.901Z,90240
2017-06-20T12:17:53.439Z,117600
2017-06-20T12:27:59.934Z,40800
2017-06-20T12:38:06.460Z,100992
2017-06-20T12:48:12.964Z,96320
2017-06-20T12:58:19.377Z,69248
2017-06-20T13:08:25.994Z,115296
2017-06-20T13:18:32.202Z,86432
2017-06-20T13:28:38.533Z,32384
2017-06-20T13:38:44.926Z,79168
2017-06-20T13:48:51.474Z,93600
2017-06-20T13:58:57.954Z,94080
2017-06-20T14:09:04.386Z,39328
2017-06-20T14:19:11.008Z,55712
2017-06-20T14:29:17.693Z,54048
2017-06-20T14:39:24.412Z,60480
2017-06-20T14:49:31.100Z,57568
2017-06-20T14:59:37.703Z,50944
2017-06-20T15:09:44.369Z,32320
2017-06-20T15:19:51.184Z,30176
2017-06-20T15:29:58.112Z,38496
2017-06-20T15:40:04.997Z,42944
2017-06-20T15:50:11.681Z,53696
2017-06-20T16:00:18.111Z,27200
2017-06-20T16:10:25.001Z,32832
2017-06-20T16:20:31.753Z,28960
2017-06-20T16:30:38.626Z,34304
2017-06-20T16:40:45.584Z,21920
2017-06-20T16:50:52.800Z,19200
2017-06-20T17:01:00.149Z,19840
2017-06-20T17:11:07.336Z,16896
2017-06-20T17:21:14.485Z,15912
2017-06-20T17:31:21.798Z,11876
2017-06-20T17:41:29.374Z,11888
2017-06-20T17:51:36.922Z,13036
2017-06-20T18:01:44.435Z,10340
2017-06-20T18:11:52.007Z,8980
2017-06-20T18:21:59.688Z,7880
2017-06-20T18:32:07.510Z,6864
2017-06-20T18:42:15.402Z,5664
2017-06-20T18:52:23.364Z,5132
2017-06-20T19:02:31.421Z,4180
2017-06-20T19:12:39.564Z,3408
2017-06-20T19:22:47.795Z,2356
2017-06-20T19:32:56.136Z,1496
2017-06-20T19:43:04.667Z,820
2017-06-20T19:53:13.326Z,384
2017-06-20T20:03:22.017Z,176
2017-06-20T20:13:30.813Z,60
2017-06-20T20:23:39.678Z,16
2017-06-20T20:33:48.594Z,4
2017-06-20T20:43:57.551Z,0
2017-06-20T20:54:06.621Z,0
2017-06-20T21:04:15.747Z,0
2017-06-20T21:14:24.940Z,0
2017-06-20T21:24:34.157Z,0
2017-06-20T21:34:43.399Z,0
2017-06-20T21:44:52.691Z,0
2017-06-20T21:55:02.085Z,0
2017-06-20T22:05:11.385Z,0
2017-06-20T22:15:20.742Z,0
2017-06-20T22:25:30.119Z,0
2017-06-20T22:35:39.496Z,0
2017-06-20T22:45:48.873Z,0
2017-06-20T22:55:58.290Z,0
2017-06-20T23:06:07.703Z,0
2017-06-20T23:16:17.155Z,0
2017-06-20T23:26:26.636Z,0
2017-06-20T23:36:36.161Z,0
2017-06-20T23:46:45.670Z,0
2017-06-20T23:56:55.300Z,0
